CYPO

Peawanuck Airport

Peawanuck, Ontario, Canada
METAR CYPO 220600Z AUTO 19008KT 9SM CLR 02/M05 A3018 RMK SLP224
Observed Flight Rules
Apr-22 @ 06:00 UTC (53 minutes ago) Visual Flight Rules
Wind Visibility Clouds
190° at 8 knots 9 miles
  • Clear skies
Temperatures Readings
Current 2°C / 36°F
Dewpoint -5°C / 23°F
Humidity 60%
Altimeter 30.18" Hg
Pressure 1022.4 hPa
Elevation 53
METAR CYPO 220600Z AUTO 19008KT 9SM CLR 02/M05 A3018 RMK SLP224
Observed Flight Rules
Apr-22 @ 06:00 UTC
(53 minutes ago)
VFR
Wind Visibility
190° at 8 knots 9 miles
Clouds
  • Clear skies
Temperature Dewpoint
2°C / 36°F -5°C / 23°F
Humidity Altimeter Pressure
60% 30.18" Hg 1022.4 hPa